Time;durP1;ratioP1;P1;durP2;ratioP2;P2;SDS_P1;SDS_P2;PMS_P1;PMS_P2;Temp;Humidity;BMP_temperature;BMP_pressure;BME280_temperature;BME280_humidity;BME280_pressure;Samples;Min_cycle;Max_cycle;Signal;HPM_P1;HPM_P2
2023/05/04 00:02:10;;;;;;;;;;;16.40;54.00;;;;;;5061628;28;19975;-86
2023/05/04 00:04:36;;;;;;;;;;;16.40;54.00;;;;;;5061561;28;19928;-86
2023/05/04 00:07:01;;;;;;;;;;;16.40;54.00;;;;;;5061690;28;19912;-86
2023/05/04 00:09:28;;;;;;;;;;;16.40;54.00;;;;;;5061756;28;19912;-86
2023/05/04 00:11:54;;;;;;;;;;;16.40;54.00;;;;;;5082139;28;20338;-86
2023/05/04 00:14:19;;;;;;;;;;;16.40;54.00;;;;;;5041965;28;19909;-86
2023/05/04 00:16:46;;;;;;;;;;;16.30;54.00;;;;;;5060684;28;20262;-86
2023/05/04 00:19:12;;;;;;;;;;;16.30;54.10;;;;;;5078836;28;19916;-87
2023/05/04 00:21:37;;;;;;;;;;;16.30;54.10;;;;;;5061405;28;19913;-87
2023/05/04 00:24:03;;;;;;;;;;;16.30;54.10;;;;;;5060654;28;19912;-86
2023/05/04 00:26:37;;;;;;;;;;;16.30;54.20;;;;;;5061265;28;19935;-86
2023/05/04 00:29:03;;;;;;;;;;;16.30;54.20;;;;;;5040885;28;19920;-86
2023/05/04 00:31:28;;;;;;;;;;;16.30;54.20;;;;;;5041766;28;19909;-86
2023/05/04 00:33:54;;;;;;;;;;;16.30;54.20;;;;;;5074405;28;20300;-87
2023/05/04 00:36:19;;;;;;;;;;;16.20;54.20;;;;;;5041189;28;19909;-86
2023/05/04 00:38:47;;;;;;;;;;;16.20;54.30;;;;;;5040724;28;20270;-86
2023/05/04 00:41:12;;;;;;;;;;;16.20;54.30;;;;;;5041597;28;19966;-86
2023/05/04 00:43:58;;;;;;;;;;;16.20;54.30;;;;;;5042962;28;19913;-86
2023/05/04 00:46:35;;;;;;;;;;;16.20;54.30;;;;;;5061342;28;19939;-86
2023/05/04 00:49:01;;;;;;;;;;;16.20;54.40;;;;;;5061482;28;19946;-86
2023/05/04 00:51:27;;;;;;;;;;;16.20;54.40;;;;;;5060513;28;20264;-86
2023/05/04 00:53:53;;;;;;;;;;;16.20;54.40;;;;;;5060984;28;20252;-86
2023/05/04 00:56:27;;;;;;;;;;;16.20;54.50;;;;;;5061128;28;19908;-86
2023/05/04 00:58:53;;;;;;;;;;;16.20;54.50;;;;;;5060521;28;19912;-86
2023/05/04 01:01:22;;;;;;;;;;;16.20;54.50;;;;;;5059633;28;19912;-86
2023/05/04 01:03:48;;;;;;;;;;;16.20;54.50;;;;;;5057522;28;20219;-86
2023/05/04 01:06:34;;;;;;;;;;;16.10;54.50;;;;;;5074930;28;19991;-86
2023/05/04 01:09:15;;;;;;;;;;;16.10;54.60;;;;;;5054330;28;20298;-86
2023/05/04 01:11:55;;;;;;;;;;;16.10;54.60;;;;;;5060127;28;19991;-86
2023/05/04 01:14:21;;;;;;;;;;;16.10;54.60;;;;;;5059278;28;19927;-86
2023/05/04 01:16:47;;;;;;;;;;;16.10;54.60;;;;;;5060222;28;19912;-86
2023/05/04 01:19:12;;;;;;;;;;;16.10;54.70;;;;;;5059945;28;20037;-87
2023/05/04 01:21:38;;;;;;;;;;;16.10;54.70;;;;;;5077519;28;19967;-86
2023/05/04 01:24:05;;;;;;;;;;;16.10;54.70;;;;;;5077276;28;19920;-86
2023/05/04 01:26:37;;;;;;;;;;;16.10;54.70;;;;;;5077198;28;19924;-86
2023/05/04 01:29:16;;;;;;;;;;;16.00;54.70;;;;;;5061177;28;19908;-86
2023/05/04 01:31:45;;;;;;;;;;;16.00;54.70;;;;;;5043911;28;19912;-86
2023/05/04 01:34:12;;;;;;;;;;;16.00;54.80;;;;;;5060601;28;20238;-86
2023/05/04 01:36:38;;;;;;;;;;;16.00;54.80;;;;;;5078010;28;20053;-86
2023/05/04 01:39:04;;;;;;;;;;;16.00;54.90;;;;;;5061093;28;19965;-86
2023/05/04 01:41:35;;;;;;;;;;;16.00;54.90;;;;;;5060556;28;19991;-86
2023/05/04 01:44:01;;;;;;;;;;;16.00;54.90;;;;;;5060235;28;19927;-86
2023/05/04 01:46:27;;;;;;;;;;;16.00;54.90;;;;;;5061057;28;19917;-86
2023/05/04 01:48:52;;;;;;;;;;;16.00;54.90;;;;;;5064313;28;19908;-86
2023/05/04 01:51:36;;;;;;;;;;;15.90;54.90;;;;;;5063607;28;20046;-87
2023/05/04 01:54:02;;;;;;;;;;;15.90;55.30;;;;;;5089284;28;20093;-86
2023/05/04 01:56:28;;;;;;;;;;;15.90;55.00;;;;;;5058015;28;19917;-87
2023/05/04 01:58:53;;;;;;;;;;;15.90;55.00;;;;;;5080050;28;19923;-86
2023/05/04 02:01:37;;;;;;;;;;;15.90;55.10;;;;;;5081283;28;19977;-86
2023/05/04 02:04:03;;;;;;;;;;;15.90;55.10;;;;;;5063144;28;19916;-86
2023/05/04 02:06:28;;;;;;;;;;;15.90;55.10;;;;;;5062860;28;19913;-87
2023/05/04 02:08:54;;;;;;;;;;;15.90;55.10;;;;;;5081044;28;19923;-87
2023/05/04 02:11:26;;;;;;;;;;;15.80;55.10;;;;;;5084653;28;20173;-87
2023/05/04 02:13:52;;;;;;;;;;;15.80;55.10;;;;;;5043923;28;19909;-86
2023/05/04 02:16:17;;;;;;;;;;;15.80;55.20;;;;;;5043329;28;19939;-86
2023/05/04 02:18:43;;;;;;;;;;;15.80;55.20;;;;;;5044257;28;19916;-86
2023/05/04 02:21:17;;;;;;;;;;;15.80;55.20;;;;;;5043559;28;19963;-86
2023/05/04 02:23:43;;;;;;;;;;;15.80;55.20;;;;;;5043921;28;19912;-86
2023/05/04 02:26:08;;;;;;;;;;;15.80;55.30;;;;;;5044734;28;19909;-86
2023/05/04 02:28:34;;;;;;;;;;;15.80;55.40;;;;;;5097650;28;20177;-86
2023/05/04 02:31:02;;;;;;;;;;;15.80;55.40;;;;;;5063442;28;20265;-87
2023/05/04 02:33:27;;;;;;;;;;;15.80;55.40;;;;;;5062237;28;19908;-86
2023/05/04 02:35:53;;;;;;;;;;;15.80;55.40;;;;;;5063499;28;19916;-86
2023/05/04 02:38:18;;;;;;;;;;;15.80;55.50;;;;;;5097540;28;20235;-86
2023/05/04 02:40:45;;;;;;;;;;;15.70;55.50;;;;;;5085127;28;19913;-86
2023/05/04 02:43:11;;;;;;;;;;;15.70;55.50;;;;;;5077211;28;20383;-86
2023/05/04 02:45:36;;;;;;;;;;;15.70;55.60;;;;;;5063655;28;19912;-86
2023/05/04 02:48:02;;;;;;;;;;;15.70;55.60;;;;;;5063926;28;20190;-86
2023/05/04 02:50:29;;;;;;;;;;;15.70;55.60;;;;;;5062914;28;19995;-86
2023/05/04 02:52:55;;;;;;;;;;;15.70;55.70;;;;;;5063238;28;19952;-86
2023/05/04 02:55:20;;;;;;;;;;;15.70;55.70;;;;;;5062882;28;19912;-86
2023/05/04 02:57:46;;;;;;;;;;;15.60;55.70;;;;;;5063459;28;19909;-86
2023/05/04 03:00:12;;;;;;;;;;;15.60;55.60;;;;;;5062770;28;20957;-86
2023/05/04 03:02:38;;;;;;;;;;;15.60;55.70;;;;;;5063050;28;20285;-86
2023/05/04 03:05:03;;;;;;;;;;;15.60;55.70;;;;;;5062380;28;19923;-86
2023/05/04 03:07:29;;;;;;;;;;;15.60;55.70;;;;;;5061743;28;20197;-86
2023/05/04 03:09:55;;;;;;;;;;;15.60;55.70;;;;;;5062179;28;19909;-86
2023/05/04 03:12:20;;;;;;;;;;;15.60;55.80;;;;;;5063226;28;19920;-86
2023/05/04 03:14:46;;;;;;;;;;;15.60;55.80;;;;;;5062121;28;19935;-86
2023/05/04 03:17:12;;;;;;;;;;;15.60;55.80;;;;;;5079852;28;19917;-86
2023/05/04 03:19:37;;;;;;;;;;;15.60;55.90;;;;;;5062777;28;20067;-86
2023/05/04 03:22:03;;;;;;;;;;;15.60;55.90;;;;;;5062826;28;20198;-86
2023/05/04 03:24:29;;;;;;;;;;;15.50;55.90;;;;;;5062236;28;20350;-86
2023/05/04 03:27:03;;;;;;;;;;;15.50;55.90;;;;;;5079240;28;20197;-86
2023/05/04 03:29:28;;;;;;;;;;;15.50;55.90;;;;;;5042965;28;19912;-86
2023/05/04 03:31:55;;;;;;;;;;;15.50;56.00;;;;;;5067051;28;19915;-86
2023/05/04 03:34:21;;;;;;;;;;;15.50;56.00;;;;;;5062226;28;20006;-86
2023/05/04 03:36:48;;;;;;;;;;;15.50;56.00;;;;;;5061949;28;19916;-86
2023/05/04 03:39:15;;;;;;;;;;;15.50;56.10;;;;;;5062358;28;19947;-86
2023/05/04 03:41:41;;;;;;;;;;;15.50;56.10;;;;;;5062137;28;19947;-86
2023/05/04 03:44:07;;;;;;;;;;;15.40;56.10;;;;;;5062123;28;19960;-86
2023/05/04 03:46:38;;;;;;;;;;;15.40;56.10;;;;;;5061211;28;19916;-86
2023/05/04 03:49:03;;;;;;;;;;;15.40;56.10;;;;;;5078977;28;20428;-86
2023/05/04 03:51:29;;;;;;;;;;;15.40;56.20;;;;;;5060914;28;20019;-86
2023/05/04 03:53:56;;;;;;;;;;;15.40;56.20;;;;;;5060995;28;20670;-86
2023/05/04 03:56:22;;;;;;;;;;;15.40;56.10;;;;;;5078517;28;20305;-86
2023/05/04 03:58:48;;;;;;;;;;;15.40;56.20;;;;;;5060816;28;19955;-86
2023/05/04 04:01:14;;;;;;;;;;;15.40;56.20;;;;;;5044799;28;19947;-86
2023/05/04 04:03:39;;;;;;;;;;;15.40;56.20;;;;;;5060210;28;19916;-86
2023/05/04 04:06:08;;;;;;;;;;;15.40;56.20;;;;;;5076032;28;19962;-86
2023/05/04 04:08:34;;;;;;;;;;;15.40;56.30;;;;;;5075840;28;19928;-86
2023/05/04 04:10:59;;;;;;;;;;;15.40;56.30;;;;;;5059447;28;19909;-87
2023/05/04 04:13:26;;;;;;;;;;;15.40;56.30;;;;;;5059738;28;19916;-87
2023/05/04 04:15:52;;;;;;;;;;;15.40;56.40;;;;;;5076762;28;20008;-87
2023/05/04 04:18:18;;;;;;;;;;;15.40;56.40;;;;;;5059352;28;20003;-87
2023/05/04 04:20:44;;;;;;;;;;;15.30;56.40;;;;;;5058205;28;20239;-87
2023/05/04 04:23:12;;;;;;;;;;;15.40;56.40;;;;;;5076638;28;19908;-86
2023/05/04 04:25:37;;;;;;;;;;;15.30;56.40;;;;;;5059148;28;20050;-86
2023/05/04 04:28:03;;;;;;;;;;;15.40;56.50;;;;;;5059546;28;20003;-87
2023/05/04 04:30:29;;;;;;;;;;;15.40;56.50;;;;;;5059296;28;19928;-87
2023/05/04 04:32:56;;;;;;;;;;;15.40;56.40;;;;;;5074428;28;19909;-87
2023/05/04 04:35:26;;;;;;;;;;;15.40;56.50;;;;;;5050201;28;20005;-86
2023/05/04 04:37:51;;;;;;;;;;;15.40;56.50;;;;;;5049905;28;20398;-87
2023/05/04 04:40:17;;;;;;;;;;;15.40;56.50;;;;;;5049567;28;20072;-86
2023/05/04 04:42:43;;;;;;;;;;;15.40;56.50;;;;;;5050146;28;19962;-86
2023/05/04 04:45:09;;;;;;;;;;;15.40;56.50;;;;;;5050602;28;19912;-86
2023/05/04 04:47:34;;;;;;;;;;;15.40;56.40;;;;;;5051657;28;20140;-86
2023/05/04 04:50:00;;;;;;;;;;;15.40;56.40;;;;;;5050704;28;19916;-86
2023/05/04 04:52:26;;;;;;;;;;;15.40;56.50;;;;;;5048937;28;19951;-87
2023/05/04 04:54:51;;;;;;;;;;;15.40;56.40;;;;;;5068954;28;20270;-86
2023/05/04 04:57:17;;;;;;;;;;;15.40;56.40;;;;;;5073539;28;19943;-87
2023/05/04 04:59:42;;;;;;;;;;;15.40;56.40;;;;;;5054446;28;19913;-86
2023/05/04 05:02:08;;;;;;;;;;;15.40;56.40;;;;;;5052873;28;19943;-86
2023/05/04 05:04:35;;;;;;;;;;;15.40;56.40;;;;;;5049846;28;19913;-86
2023/05/04 05:07:00;;;;;;;;;;;15.40;56.40;;;;;;5049443;28;20011;-86
2023/05/04 05:09:26;;;;;;;;;;;15.40;56.40;;;;;;5067986;28;20012;-86
2023/05/04 05:11:51;;;;;;;;;;;15.40;56.50;;;;;;5062188;28;19908;-86
2023/05/04 05:14:17;;;;;;;;;;;15.50;56.60;;;;;;5051800;28;19908;-86
2023/05/04 05:16:43;;;;;;;;;;;15.50;56.60;;;;;;5052465;28;19969;-86
2023/05/04 05:19:08;;;;;;;;;;;15.50;56.60;;;;;;5050027;28;19951;-86
2023/05/04 05:21:34;;;;;;;;;;;15.50;56.60;;;;;;5051249;28;20258;-86
2023/05/04 05:24:00;;;;;;;;;;;15.60;56.60;;;;;;5054437;28;19952;-86
2023/05/04 05:26:26;;;;;;;;;;;15.60;56.70;;;;;;5053994;28;20371;-86
2023/05/04 05:28:51;;;;;;;;;;;15.60;56.60;;;;;;5050461;28;20007;-86
2023/05/04 05:31:17;;;;;;;;;;;15.70;56.50;;;;;;5052621;28;20303;-86
2023/05/04 05:33:43;;;;;;;;;;;15.80;56.40;;;;;;5070201;28;19920;-86
2023/05/04 05:36:08;;;;;;;;;;;15.90;56.30;;;;;;5086204;28;20013;-86
2023/05/04 05:38:34;;;;;;;;;;;15.90;56.30;;;;;;5068300;28;20014;-86
2023/05/04 05:41:00;;;;;;;;;;;16.00;56.20;;;;;;5049484;28;20222;-86
2023/05/04 05:43:25;;;;;;;;;;;16.10;56.20;;;;;;5083596;28;19979;-86
2023/05/04 05:45:52;;;;;;;;;;;16.20;55.90;;;;;;5068664;28;19919;-86
2023/05/04 05:48:17;;;;;;;;;;;16.30;55.90;;;;;;5067131;28;19958;-86
2023/05/04 05:50:43;;;;;;;;;;;16.40;55.80;;;;;;5082742;28;19917;-86
2023/05/04 05:53:08;;;;;;;;;;;16.50;55.50;;;;;;5050658;28;19912;-86
2023/05/04 05:55:34;;;;;;;;;;;16.60;55.30;;;;;;5069682;28;19909;-87
2023/05/04 05:58:00;;;;;;;;;;;16.70;55.30;;;;;;5050639;28;20282;-86
2023/05/04 06:00:43;;;;;;;;;;;16.80;55.20;;;;;;5051771;28;19920;-88
2023/05/04 06:03:09;;;;;;;;;;;16.90;54.80;;;;;;5059236;28;20310;-87
2023/05/04 06:05:35;;;;;;;;;;;17.00;54.60;;;;;;5025217;28;19916;-87
2023/05/04 06:08:00;;;;;;;;;;;17.10;54.50;;;;;;5030299;28;20257;-87
2023/05/04 06:10:26;;;;;;;;;;;17.20;54.20;;;;;;5028215;28;19909;-87
2023/05/04 06:12:51;;;;;;;;;;;17.30;54.20;;;;;;5026765;28;19909;-87
2023/05/04 06:15:17;;;;;;;;;;;17.40;54.10;;;;;;5027450;28;19909;-87
2023/05/04 06:17:43;;;;;;;;;;;17.50;54.10;;;;;;5031703;28;20240;-87
2023/05/04 06:20:08;;;;;;;;;;;17.60;54.00;;;;;;5031412;28;19917;-87
2023/05/04 06:22:34;;;;;;;;;;;17.70;53.80;;;;;;5032035;28;19944;-87
2023/05/04 06:25:00;;;;;;;;;;;17.80;53.70;;;;;;5048372;28;19966;-87
2023/05/04 06:27:27;;;;;;;;;;;17.90;53.50;;;;;;5033454;28;19908;-87
2023/05/04 06:29:53;;;;;;;;;;;18.00;53.20;;;;;;5029719;28;19913;-87
2023/05/04 06:32:18;;;;;;;;;;;18.20;53.20;;;;;;5029324;28;19919;-87
2023/05/04 06:34:44;;;;;;;;;;;18.20;52.90;;;;;;5028135;28;19913;-87
2023/05/04 06:37:10;;;;;;;;;;;18.30;52.80;;;;;;5030521;28;19920;-87
2023/05/04 06:39:36;;;;;;;;;;;18.50;52.80;;;;;;5030852;28;20030;-87
2023/05/04 06:42:02;;;;;;;;;;;18.70;52.50;;;;;;5031309;28;19973;-87
2023/05/04 06:44:27;;;;;;;;;;;19.00;52.00;;;;;;5048331;28;19919;-87
2023/05/04 06:46:53;;;;;;;;;;;19.20;51.80;;;;;;5031501;28;19909;-87
2023/05/04 06:49:18;;;;;;;;;;;19.30;51.60;;;;;;5029640;28;20008;-87
2023/05/04 06:51:44;;;;;;;;;;;19.40;51.30;;;;;;5047122;28;20399;-87
2023/05/04 06:54:10;;;;;;;;;;;19.50;51.20;;;;;;5026803;28;20001;-87
2023/05/04 06:56:38;;;;;;;;;;;19.70;51.00;;;;;;5048831;28;19920;-87
2023/05/04 06:59:04;;;;;;;;;;;20.00;50.80;;;;;;5031735;28;20442;-87
2023/05/04 07:01:30;;;;;;;;;;;20.20;50.50;;;;;;5030278;28;20040;-87
2023/05/04 07:03:57;;;;;;;;;;;20.50;50.10;;;;;;5031184;28;20007;-87
2023/05/04 07:06:25;;;;;;;;;;;20.70;49.80;;;;;;5047451;28;19940;-87
2023/05/04 07:08:53;;;;;;;;;;;20.90;49.50;;;;;;5048874;28;19998;-87
2023/05/04 07:11:19;;;;;;;;;;;21.00;49.20;;;;;;5029122;28;19916;-87
2023/05/04 07:13:45;;;;;;;;;;;21.10;49.10;;;;;;5029335;28;19908;-87
2023/05/04 07:16:10;;;;;;;;;;;21.20;49.00;;;;;;5046981;28;19915;-87
2023/05/04 07:18:37;;;;;;;;;;;21.60;48.80;;;;;;5049066;28;20089;-87
2023/05/04 07:21:08;;;;;;;;;;;21.90;48.30;;;;;;5033033;28;20105;-87
2023/05/04 07:23:33;;;;;;;;;;;22.30;47.90;;;;;;5031689;28;19956;-87
2023/05/04 07:25:59;;;;;;;;;;;22.50;47.50;;;;;;5031975;28;20006;-87
2023/05/04 07:28:25;;;;;;;;;;;22.50;47.30;;;;;;5031241;28;20019;-87
2023/05/04 07:30:50;;;;;;;;;;;22.70;47.10;;;;;;5032190;28;19909;-87
2023/05/04 07:33:16;;;;;;;;;;;22.90;46.80;;;;;;5049228;28;19908;-87
2023/05/04 07:35:41;;;;;;;;;;;23.10;46.60;;;;;;5048542;28;20310;-86
2023/05/04 07:38:07;;;;;;;;;;;23.20;46.50;;;;;;5049796;28;19916;-87
2023/05/04 07:40:33;;;;;;;;;;;23.40;46.20;;;;;;5034200;28;20546;-87
2023/05/04 07:42:58;;;;;;;;;;;23.60;46.00;;;;;;5032257;28;19913;-87
2023/05/04 07:45:24;;;;;;;;;;;23.70;45.70;;;;;;5029050;28;20070;-87
2023/05/04 07:47:50;;;;;;;;;;;23.70;45.70;;;;;;5026591;28;19909;-87
2023/05/04 07:50:15;;;;;;;;;;;23.90;45.60;;;;;;5043981;28;20017;-87
2023/05/04 07:52:41;;;;;;;;;;;24.10;45.40;;;;;;5027673;28;19915;-87
2023/05/04 07:55:07;;;;;;;;;;;24.40;45.30;;;;;;5028933;28;20116;-87
2023/05/04 07:57:36;;;;;;;;;;;24.50;45.00;;;;;;5029355;28;19916;-84
2023/05/04 08:00:03;;;;;;;;;;;24.60;44.80;;;;;;5047269;28;19964;-84
2023/05/04 08:02:29;;;;;;;;;;;24.60;44.70;;;;;;5031645;28;20281;-85
2023/05/04 08:04:55;;;;;;;;;;;24.60;44.70;;;;;;5049269;28;19967;-85
2023/05/04 08:07:21;;;;;;;;;;;24.40;44.70;;;;;;5032399;28;20254;-84
2023/05/04 08:09:47;;;;;;;;;;;24.50;44.80;;;;;;5032841;28;19970;-84
2023/05/04 08:12:13;;;;;;;;;;;24.80;44.70;;;;;;5049456;28;19917;-84
2023/05/04 08:14:39;;;;;;;;;;;25.10;44.40;;;;;;5049414;28;20213;-84
2023/05/04 08:17:05;;;;;;;;;;;25.40;44.20;;;;;;5030228;28;19909;-84
2023/05/04 08:19:30;;;;;;;;;;;25.60;43.90;;;;;;5028485;28;19943;-84
2023/05/04 08:21:56;;;;;;;;;;;25.60;43.70;;;;;;5029729;28;19920;-84
2023/05/04 08:24:21;;;;;;;;;;;25.60;43.80;;;;;;5028978;28;19917;-84
2023/05/04 08:26:47;;;;;;;;;;;25.70;43.70;;;;;;5045486;28;19975;-84
2023/05/04 08:29:12;;;;;;;;;;;25.60;43.70;;;;;;5026573;28;20316;-84
2023/05/04 08:31:39;;;;;;;;;;;25.70;43.60;;;;;;5027845;28;20270;-84
2023/05/04 08:34:05;;;;;;;;;;;25.80;43.60;;;;;;5027135;28;19917;-85
2023/05/04 08:36:30;;;;;;;;;;;26.10;43.50;;;;;;5028220;28;19913;-85
2023/05/04 08:38:56;;;;;;;;;;;26.30;43.30;;;;;;5028332;28;19909;-85
2023/05/04 08:41:24;;;;;;;;;;;26.40;43.10;;;;;;5032649;28;20054;-85
2023/05/04 08:43:50;;;;;;;;;;;26.60;43.00;;;;;;5032286;28;19974;-85
2023/05/04 08:46:16;;;;;;;;;;;26.60;42.80;;;;;;5048526;28;19909;-85
2023/05/04 08:48:43;;;;;;;;;;;26.50;42.90;;;;;;5028686;28;19909;-85
2023/05/04 08:51:10;;;;;;;;;;;26.60;42.90;;;;;;5029829;28;20202;-85
2023/05/04 08:53:36;;;;;;;;;;;26.70;42.80;;;;;;5029144;28;19913;-84
2023/05/04 08:56:03;;;;;;;;;;;26.80;42.80;;;;;;5032612;28;19917;-85
2023/05/04 08:58:28;;;;;;;;;;;26.90;42.60;;;;;;5037945;28;19940;-85
2023/05/04 09:00:55;;;;;;;;;;;26.80;42.60;;;;;;5037307;28;19971;-85
2023/05/04 09:03:21;;;;;;;;;;;26.60;42.70;;;;;;5044428;28;20301;-85
2023/05/04 09:05:49;;;;;;;;;;;26.40;42.80;;;;;;5074974;28;19908;-85
2023/05/04 09:08:15;;;;;;;;;;;26.60;42.90;;;;;;5055766;28;20268;-85
2023/05/04 09:10:41;;;;;;;;;;;26.80;42.80;;;;;;5058067;28;20316;-84
2023/05/04 09:13:07;;;;;;;;;;;26.80;42.70;;;;;;5056161;28;19912;-85
2023/05/04 09:15:33;;;;;;;;;;;27.00;42.80;;;;;;5053228;28;19919;-85
2023/05/04 09:18:06;;;;;;;;;;;27.10;42.50;;;;;;5055033;28;20006;-84
2023/05/04 09:20:45;;;;;;;;;;;27.10;42.60;;;;;;5072956;28;19908;-85
2023/05/04 09:23:12;;;;;;;;;;;27.50;42.40;;;;;;5055438;28;19908;-85
2023/05/04 09:25:47;;;;;;;;;;;27.50;42.20;;;;;;5054391;28;19968;-85
2023/05/04 09:28:14;;;;;;;;;;;27.70;42.20;;;;;;5054597;28;19916;-85
2023/05/04 09:30:39;;;;;;;;;;;27.70;42.10;;;;;;5070602;28;20016;-85
2023/05/04 09:33:05;;;;;;;;;;;27.90;42.10;;;;;;5052591;28;19908;-84
2023/05/04 09:35:30;;;;;;;;;;;27.80;41.90;;;;;;5053888;28;19909;-85
2023/05/04 09:37:57;;;;;;;;;;;27.70;41.90;;;;;;5071760;28;19999;-85
2023/05/04 09:40:29;;;;;;;;;;;27.50;42.00;;;;;;5054950;28;19908;-86
2023/05/04 09:42:55;;;;;;;;;;;27.70;42.10;;;;;;5056050;28;19999;-86
2023/05/04 09:45:21;;;;;;;;;;;28.10;41.70;;;;;;5052817;28;19959;-86
2023/05/04 09:47:47;;;;;;;;;;;28.40;41.60;;;;;;5054254;28;20269;-86
2023/05/04 09:50:16;;;;;;;;;;;28.70;41.40;;;;;;5052211;28;19919;-85
2023/05/04 09:52:46;;;;;;;;;;;28.90;41.20;;;;;;5052294;28;19912;-86
2023/05/04 09:55:13;;;;;;;;;;;29.10;41.00;;;;;;5054021;28;19952;-86
2023/05/04 09:57:43;;;;;;;;;;;29.30;40.90;;;;;;5071167;28;20194;-86
2023/05/04 10:00:12;;;;;;;;;;;29.40;40.80;;;;;;5052384;28;19912;-86
2023/05/04 10:02:39;;;;;;;;;;;29.30;40.70;;;;;;5052960;28;20089;-85
2023/05/04 10:05:08;;;;;;;;;;;29.10;40.90;;;;;;5054620;28;19913;-85
2023/05/04 10:07:34;;;;;;;;;;;28.70;40.90;;;;;;5069335;28;20262;-85
2023/05/04 10:10:00;;;;;;;;;;;28.10;41.20;;;;;;5053248;28;19916;-85
2023/05/04 10:12:25;;;;;;;;;;;27.40;41.60;;;;;;5052341;28;19923;-85
2023/05/04 10:14:51;;;;;;;;;;;26.70;42.10;;;;;;5052775;28;19909;-86
2023/05/04 10:17:20;;;;;;;;;;;26.10;42.50;;;;;;5069630;28;20015;-86
2023/05/04 10:20:04;;;;;;;;;;;25.60;42.90;;;;;;5069453;28;19916;-85
2023/05/04 10:22:41;;;;;;;;;;;25.10;43.30;;;;;;5069812;28;19916;-85
2023/05/04 10:25:10;;;;;;;;;;;24.80;43.60;;;;;;5053259;28;20167;-85
2023/05/04 10:27:42;;;;;;;;;;;24.50;44.00;;;;;;5051310;28;19948;-85
2023/05/04 10:30:09;;;;;;;;;;;24.30;44.40;;;;;;5071144;28;19915;-86
2023/05/04 10:32:38;;;;;;;;;;;24.10;44.60;;;;;;5049734;28;19908;-85
2023/05/04 10:35:05;;;;;;;;;;;24.00;44.90;;;;;;5067455;28;19908;-85
2023/05/04 10:37:31;;;;;;;;;;;23.80;45.00;;;;;;5068004;28;19974;-85
2023/05/04 10:39:56;;;;;;;;;;;23.70;45.20;;;;;;5047989;28;19988;-85
2023/05/04 10:42:22;;;;;;;;;;;23.60;45.40;;;;;;5046881;28;19908;-85
2023/05/04 10:44:51;;;;;;;;;;;23.50;45.50;;;;;;5048889;28;19919;-85
2023/05/04 10:47:26;;;;;;;;;;;23.50;45.70;;;;;;5046885;28;20028;-85
2023/05/04 10:49:59;;;;;;;;;;;23.40;45.80;;;;;;5046585;28;19909;-85
2023/05/04 10:52:25;;;;;;;;;;;23.30;45.90;;;;;;5063759;28;19909;-84
2023/05/04 10:54:57;;;;;;;;;;;23.30;46.10;;;;;;5067341;28;19951;-85
2023/05/04 10:57:23;;;;;;;;;;;23.20;46.20;;;;;;5046816;28;19909;-85
2023/05/04 10:59:56;;;;;;;;;;;23.20;46.30;;;;;;5046909;28;20304;-85
2023/05/04 11:02:25;;;;;;;;;;;23.10;46.40;;;;;;5045847;28;20139;-85
2023/05/04 11:04:58;;;;;;;;;;;23.10;46.50;;;;;;5063646;28;19992;-85
2023/05/04 11:07:36;;;;;;;;;;;23.00;46.70;;;;;;5042454;28;19908;-85
2023/05/04 11:10:05;;;;;;;;;;;23.00;46.80;;;;;;5063525;28;20247;-84
2023/05/04 11:12:31;;;;;;;;;;;22.90;46.90;;;;;;5045169;28;19916;-84
2023/05/04 11:15:23;;;;;;;;;;;22.90;47.00;;;;;;5044655;28;19908;-85
2023/05/04 11:17:49;;;;;;;;;;;22.80;47.10;;;;;;5039699;28;19908;-85
2023/05/04 11:20:22;;;;;;;;;;;22.80;47.20;;;;;;5043254;28;20128;-86
2023/05/04 11:22:48;;;;;;;;;;;22.80;47.30;;;;;;5045869;28;19909;-85
2023/05/04 11:25:15;;;;;;;;;;;22.70;47.30;;;;;;5046631;28;19916;-85
2023/05/04 11:27:42;;;;;;;;;;;22.70;47.40;;;;;;5043440;28;19908;-85
2023/05/04 11:30:09;;;;;;;;;;;22.70;47.50;;;;;;5041986;28;20376;-86
2023/05/04 11:32:36;;;;;;;;;;;22.70;47.60;;;;;;5041994;28;20026;-84
2023/05/04 11:35:02;;;;;;;;;;;22.60;47.60;;;;;;5042372;28;19954;-84
2023/05/04 11:37:28;;;;;;;;;;;22.60;47.60;;;;;;5040972;28;20019;-85
2023/05/04 11:39:55;;;;;;;;;;;22.60;47.60;;;;;;5046565;28;19944;-86
2023/05/04 11:42:21;;;;;;;;;;;22.60;47.50;;;;;;5040281;28;19908;-85
2023/05/04 11:44:47;;;;;;;;;;;22.50;47.40;;;;;;5038692;28;20194;-85
2023/05/04 11:47:13;;;;;;;;;;;22.50;47.40;;;;;;5055507;28;19908;-84
2023/05/04 11:49:39;;;;;;;;;;;22.50;47.50;;;;;;5042721;28;20170;-84
2023/05/04 11:52:06;;;;;;;;;;;22.50;47.60;;;;;;5041438;28;19973;-84
2023/05/04 11:54:31;;;;;;;;;;;22.40;47.60;;;;;;5043452;28;19908;-85
2023/05/04 11:56:57;;;;;;;;;;;22.40;47.70;;;;;;5042246;28;19913;-85
2023/05/04 11:59:23;;;;;;;;;;;22.40;47.80;;;;;;5044342;28;20051;-86
2023/05/04 12:01:48;;;;;;;;;;;22.40;47.80;;;;;;5043740;28;19972;-87
2023/05/04 12:04:14;;;;;;;;;;;22.40;47.80;;;;;;5045243;28;20278;-86
2023/05/04 12:06:40;;;;;;;;;;;22.40;47.90;;;;;;5045209;28;19912;-86
2023/05/04 12:09:05;;;;;;;;;;;22.30;47.90;;;;;;5044155;28;19916;-86
2023/05/04 12:11:31;;;;;;;;;;;22.30;48.00;;;;;;5046943;28;19991;-86
2023/05/04 12:14:17;;;;;;;;;;;22.30;48.10;;;;;;5045266;28;19966;-86
2023/05/04 12:16:52;;;;;;;;;;;22.30;48.10;;;;;;5046712;28;19915;-86
2023/05/04 12:19:17;;;;;;;;;;;22.30;48.20;;;;;;5048618;28;19967;-86
2023/05/04 12:21:52;;;;;;;;;;;22.30;48.20;;;;;;5048693;28;19970;-86
2023/05/04 12:24:22;;;;;;;;;;;22.30;48.30;;;;;;5044435;28;20155;-86
2023/05/04 12:26:48;;;;;;;;;;;22.30;48.40;;;;;;5046393;28;20034;-86
2023/05/04 12:29:13;;;;;;;;;;;22.30;48.40;;;;;;5045940;28;20231;-86
2023/05/04 12:31:39;;;;;;;;;;;22.30;48.40;;;;;;5042542;28;19974;-87
2023/05/04 12:34:05;;;;;;;;;;;22.20;48.40;;;;;;5043661;28;19924;-86
2023/05/04 12:36:30;;;;;;;;;;;22.20;48.40;;;;;;5042363;28;19923;-87
2023/05/04 12:38:56;;;;;;;;;;;22.30;48.50;;;;;;5060121;28;20338;-87
2023/05/04 12:41:22;;;;;;;;;;;22.20;48.50;;;;;;5041287;28;19908;-87
2023/05/04 12:43:48;;;;;;;;;;;22.20;48.60;;;;;;5042865;28;20252;-87
2023/05/04 12:46:15;;;;;;;;;;;22.20;48.70;;;;;;5043413;28;19995;-87
2023/05/04 12:48:41;;;;;;;;;;;22.20;48.60;;;;;;5042687;28;20161;-87
2023/05/04 12:51:07;;;;;;;;;;;22.20;48.60;;;;;;5063638;28;20458;-87
2023/05/04 12:53:32;;;;;;;;;;;22.30;48.70;;;;;;5047784;28;19962;-87
2023/05/04 12:55:59;;;;;;;;;;;22.30;48.80;;;;;;5045178;28;19913;-87
2023/05/04 12:58:24;;;;;;;;;;;22.20;48.80;;;;;;5044419;28;19917;-87
2023/05/04 13:00:50;;;;;;;;;;;22.20;48.90;;;;;;5043988;28;19908;-86
2023/05/04 13:03:16;;;;;;;;;;;22.20;48.90;;;;;;5045454;28;20266;-87
2023/05/04 13:05:42;;;;;;;;;;;22.20;49.00;;;;;;5044706;28;20172;-86
2023/05/04 13:08:08;;;;;;;;;;;22.20;49.00;;;;;;5043203;28;19959;-86
2023/05/04 13:10:33;;;;;;;;;;;22.20;49.00;;;;;;5043142;28;20062;-87
2023/05/04 13:12:59;;;;;;;;;;;22.20;49.00;;;;;;5041926;28;19912;-87
2023/05/04 13:15:26;;;;;;;;;;;22.20;49.00;;;;;;5042646;28;19970;-87
2023/05/04 13:17:52;;;;;;;;;;;22.20;49.00;;;;;;5042804;28;19908;-86
2023/05/04 13:20:18;;;;;;;;;;;22.20;49.00;;;;;;5062292;28;20348;-87
2023/05/04 13:22:47;;;;;;;;;;;22.20;49.00;;;;;;5044647;28;19916;-87
2023/05/04 13:25:13;;;;;;;;;;;22.20;49.10;;;;;;5062332;28;19974;-87
2023/05/04 13:27:39;;;;;;;;;;;22.20;49.10;;;;;;5062767;28;19935;-87
2023/05/04 13:30:05;;;;;;;;;;;22.20;49.10;;;;;;5061313;28;19909;-86
2023/05/04 13:32:30;;;;;;;;;;;22.20;49.10;;;;;;5044547;28;20022;-86
2023/05/04 13:34:56;;;;;;;;;;;22.20;49.10;;;;;;5044814;28;19939;-86
2023/05/04 13:37:22;;;;;;;;;;;22.20;49.10;;;;;;5063285;28;19909;-86
2023/05/04 13:39:48;;;;;;;;;;;22.30;49.10;;;;;;5045389;28;20316;-86
2023/05/04 13:42:13;;;;;;;;;;;22.20;49.00;;;;;;5045761;28;19908;-86
2023/05/04 13:44:44;;;;;;;;;;;22.30;48.90;;;;;;5065154;28;20437;-86
2023/05/04 13:47:13;;;;;;;;;;;22.20;48.90;;;;;;5045864;28;19940;-87
2023/05/04 13:49:39;;;;;;;;;;;22.20;48.90;;;;;;5048520;28;19955;-87
2023/05/04 13:52:05;;;;;;;;;;;22.20;49.00;;;;;;5049609;28;20106;-87
2023/05/04 13:54:31;;;;;;;;;;;22.20;49.00;;;;;;5049987;28;20054;-86
2023/05/04 13:56:56;;;;;;;;;;;22.20;49.00;;;;;;5046930;28;20167;-87
2023/05/04 13:59:22;;;;;;;;;;;22.20;49.10;;;;;;5046515;28;19909;-87
2023/05/04 14:01:47;;;;;;;;;;;22.30;49.10;;;;;;5047678;28;20067;-87
2023/05/04 14:04:13;;;;;;;;;;;22.20;49.20;;;;;;5047902;28;20240;-86
2023/05/04 14:06:39;;;;;;;;;;;22.20;49.10;;;;;;5046065;28;19963;-87
2023/05/04 14:09:05;;;;;;;;;;;22.30;49.20;;;;;;5064960;28;19961;-86
2023/05/04 14:11:30;;;;;;;;;;;22.30;49.20;;;;;;5046146;28;20058;-86
2023/05/04 14:13:56;;;;;;;;;;;22.20;49.20;;;;;;5047288;28;19919;-86
2023/05/04 14:16:22;;;;;;;;;;;22.30;49.40;;;;;;5047547;28;19908;-87